sensor_id;sensor_type;location;lat;lon;timestamp;P1;durP1;ratioP1;P2;durP2;ratioP2
4353;SDS011;11018;51.258;6.806;2022-12-07T00:01:08;34.50;;;23.90;;
4353;SDS011;11018;51.258;6.806;2022-12-07T00:03:40;37.40;;;23.02;;
4353;SDS011;11018;51.258;6.806;2022-12-07T00:06:08;34.85;;;22.70;;
4353;SDS011;11018;51.258;6.806;2022-12-07T00:08:35;34.17;;;22.70;;
4353;SDS011;11018;51.258;6.806;2022-12-07T00:11:07;37.72;;;22.90;;
4353;SDS011;11018;51.258;6.806;2022-12-07T00:13:34;32.05;;;23.20;;
4353;SDS011;11018;51.258;6.806;2022-12-07T00:18:31;35.17;;;23.67;;
4353;SDS011;11018;51.258;6.806;2022-12-07T00:23:30;34.00;;;23.23;;
4353;SDS011;11018;51.258;6.806;2022-12-07T00:25:56;35.47;;;23.40;;
4353;SDS011;11018;51.258;6.806;2022-12-07T00:28:27;29.50;;;21.17;;
4353;SDS011;11018;51.258;6.806;2022-12-07T00:30:59;34.43;;;22.53;;
4353;SDS011;11018;51.258;6.806;2022-12-07T00:33:27;34.38;;;23.20;;
4353;SDS011;11018;51.258;6.806;2022-12-07T00:35:57;41.17;;;25.00;;
4353;SDS011;11018;51.258;6.806;2022-12-07T00:38:23;36.70;;;23.40;;
4353;SDS011;11018;51.258;6.806;2022-12-07T00:40:59;32.97;;;22.90;;
4353;SDS011;11018;51.258;6.806;2022-12-07T00:43:26;35.63;;;22.80;;
4353;SDS011;11018;51.258;6.806;2022-12-07T00:45:52;34.70;;;23.33;;
4353;SDS011;11018;51.258;6.806;2022-12-07T00:48:18;31.53;;;22.43;;
4353;SDS011;11018;51.258;6.806;2022-12-07T00:50:44;35.17;;;23.63;;
4353;SDS011;11018;51.258;6.806;2022-12-07T00:53:09;35.55;;;23.20;;
4353;SDS011;11018;51.258;6.806;2022-12-07T00:55:35;34.58;;;23.23;;
4353;SDS011;11018;51.258;6.806;2022-12-07T00:58:01;33.92;;;23.85;;
4353;SDS011;11018;51.258;6.806;2022-12-07T01:00:27;34.88;;;23.38;;
4353;SDS011;11018;51.258;6.806;2022-12-07T01:02:53;36.80;;;23.77;;
4353;SDS011;11018;51.258;6.806;2022-12-07T01:05:18;34.03;;;23.07;;
4353;SDS011;11018;51.258;6.806;2022-12-07T01:07:44;42.97;;;25.17;;
4353;SDS011;11018;51.258;6.806;2022-12-07T01:10:11;32.67;;;24.15;;
4353;SDS011;11018;51.258;6.806;2022-12-07T01:12:38;36.58;;;24.50;;
4353;SDS011;11018;51.258;6.806;2022-12-07T01:15:03;33.65;;;24.13;;
4353;SDS011;11018;51.258;6.806;2022-12-07T01:17:29;41.72;;;24.10;;
4353;SDS011;11018;51.258;6.806;2022-12-07T01:19:55;39.17;;;25.02;;
4353;SDS011;11018;51.258;6.806;2022-12-07T01:22:21;38.60;;;24.65;;
4353;SDS011;11018;51.258;6.806;2022-12-07T01:24:46;33.85;;;24.70;;
4353;SDS011;11018;51.258;6.806;2022-12-07T01:27:12;36.35;;;24.50;;
4353;SDS011;11018;51.258;6.806;2022-12-07T01:29:38;37.55;;;25.20;;
4353;SDS011;11018;51.258;6.806;2022-12-07T01:32:04;36.33;;;24.10;;
4353;SDS011;11018;51.258;6.806;2022-12-07T01:34:30;38.17;;;25.03;;
4353;SDS011;11018;51.258;6.806;2022-12-07T01:36:56;36.97;;;25.27;;
4353;SDS011;11018;51.258;6.806;2022-12-07T01:39:22;35.10;;;25.20;;
4353;SDS011;11018;51.258;6.806;2022-12-07T01:41:48;37.63;;;25.45;;
4353;SDS011;11018;51.258;6.806;2022-12-07T01:46:51;40.03;;;25.43;;
4353;SDS011;11018;51.258;6.806;2022-12-07T01:52:11;37.20;;;26.45;;
4353;SDS011;11018;51.258;6.806;2022-12-07T01:54:46;36.10;;;25.55;;
4353;SDS011;11018;51.258;6.806;2022-12-07T01:57:14;35.20;;;26.20;;
4353;SDS011;11018;51.258;6.806;2022-12-07T01:59:42;34.70;;;24.83;;
4353;SDS011;11018;51.258;6.806;2022-12-07T02:02:16;35.30;;;25.25;;
4353;SDS011;11018;51.258;6.806;2022-12-07T02:04:45;39.65;;;27.10;;
4353;SDS011;11018;51.258;6.806;2022-12-07T02:07:11;36.70;;;25.27;;
4353;SDS011;11018;51.258;6.806;2022-12-07T02:09:37;40.50;;;26.30;;
4353;SDS011;11018;51.258;6.806;2022-12-07T02:12:03;36.30;;;25.47;;
4353;SDS011;11018;51.258;6.806;2022-12-07T02:14:29;39.70;;;26.25;;
4353;SDS011;11018;51.258;6.806;2022-12-07T02:28:19;39.78;;;27.08;;
4353;SDS011;11018;51.258;6.806;2022-12-07T02:30:54;39.15;;;28.42;;
4353;SDS011;11018;51.258;6.806;2022-12-07T02:33:31;39.88;;;26.80;;
4353;SDS011;11018;51.258;6.806;2022-12-07T02:36:08;37.17;;;27.15;;
4353;SDS011;11018;51.258;6.806;2022-12-07T02:38:43;39.58;;;26.67;;
4353;SDS011;11018;51.258;6.806;2022-12-07T02:41:30;39.33;;;27.35;;
4353;SDS011;11018;51.258;6.806;2022-12-07T02:44:06;36.45;;;26.67;;
4353;SDS011;11018;51.258;6.806;2022-12-07T02:46:40;39.45;;;27.55;;
4353;SDS011;11018;51.258;6.806;2022-12-07T02:49:09;39.22;;;26.75;;
4353;SDS011;11018;51.258;6.806;2022-12-07T02:51:39;40.53;;;27.13;;
4353;SDS011;11018;51.258;6.806;2022-12-07T02:54:10;38.45;;;27.73;;
4353;SDS011;11018;51.258;6.806;2022-12-07T03:07:05;38.70;;;27.08;;
4353;SDS011;11018;51.258;6.806;2022-12-07T03:12:37;38.60;;;25.90;;
4353;SDS011;11018;51.258;6.806;2022-12-07T03:18:08;35.72;;;25.90;;
4353;SDS011;11018;51.258;6.806;2022-12-07T03:20:37;38.92;;;27.80;;
4353;SDS011;11018;51.258;6.806;2022-12-07T03:23:06;38.50;;;26.90;;
4353;SDS011;11018;51.258;6.806;2022-12-07T03:25:35;39.55;;;25.83;;
4353;SDS011;11018;51.258;6.806;2022-12-07T03:28:05;39.55;;;25.80;;
4353;SDS011;11018;51.258;6.806;2022-12-07T03:30:55;34.05;;;23.00;;
4353;SDS011;11018;51.258;6.806;2022-12-07T03:33:33;37.72;;;23.88;;
4353;SDS011;11018;51.258;6.806;2022-12-07T03:36:11;35.83;;;25.27;;
4353;SDS011;11018;51.258;6.806;2022-12-07T03:38:55;38.22;;;25.25;;
4353;SDS011;11018;51.258;6.806;2022-12-07T03:41:28;35.78;;;24.25;;
4353;SDS011;11018;51.258;6.806;2022-12-07T03:43:57;37.90;;;25.98;;
4353;SDS011;11018;51.258;6.806;2022-12-07T03:49:31;38.47;;;26.20;;
4353;SDS011;11018;51.258;6.806;2022-12-07T03:57:33;39.38;;;26.05;;
4353;SDS011;11018;51.258;6.806;2022-12-07T04:00:03;38.10;;;26.17;;
4353;SDS011;11018;51.258;6.806;2022-12-07T04:02:29;37.30;;;27.20;;
4353;SDS011;11018;51.258;6.806;2022-12-07T04:04:55;34.75;;;24.85;;
4353;SDS011;11018;51.258;6.806;2022-12-07T04:07:21;37.40;;;25.20;;
4353;SDS011;11018;51.258;6.806;2022-12-07T04:09:46;38.50;;;24.13;;
4353;SDS011;11018;51.258;6.806;2022-12-07T04:12:12;33.87;;;24.70;;
4353;SDS011;11018;51.258;6.806;2022-12-07T04:14:38;34.43;;;24.80;;
4353;SDS011;11018;51.258;6.806;2022-12-07T04:17:03;36.00;;;22.60;;
4353;SDS011;11018;51.258;6.806;2022-12-07T04:19:30;39.63;;;25.80;;
4353;SDS011;11018;51.258;6.806;2022-12-07T04:21:57;31.83;;;23.50;;
4353;SDS011;11018;51.258;6.806;2022-12-07T04:24:24;38.20;;;25.30;;
4353;SDS011;11018;51.258;6.806;2022-12-07T04:26:50;39.33;;;26.20;;
4353;SDS011;11018;51.258;6.806;2022-12-07T04:29:16;37.63;;;26.20;;
4353;SDS011;11018;51.258;6.806;2022-12-07T04:31:43;42.60;;;26.83;;
4353;SDS011;11018;51.258;6.806;2022-12-07T04:34:09;34.90;;;24.80;;
4353;SDS011;11018;51.258;6.806;2022-12-07T04:36:35;34.63;;;24.53;;
4353;SDS011;11018;51.258;6.806;2022-12-07T04:39:02;40.20;;;25.10;;
4353;SDS011;11018;51.258;6.806;2022-12-07T04:41:28;34.65;;;24.30;;
4353;SDS011;11018;51.258;6.806;2022-12-07T04:43:54;34.30;;;23.87;;
4353;SDS011;11018;51.258;6.806;2022-12-07T04:46:22;37.85;;;24.33;;
4353;SDS011;11018;51.258;6.806;2022-12-07T04:48:48;33.05;;;23.85;;
4353;SDS011;11018;51.258;6.806;2022-12-07T04:51:15;36.85;;;21.73;;
4353;SDS011;11018;51.258;6.806;2022-12-07T04:53:44;30.10;;;20.98;;
4353;SDS011;11018;51.258;6.806;2022-12-07T04:56:10;28.73;;;20.73;;
4353;SDS011;11018;51.258;6.806;2022-12-07T04:58:35;29.63;;;19.90;;
4353;SDS011;11018;51.258;6.806;2022-12-07T05:01:01;29.50;;;19.17;;
4353;SDS011;11018;51.258;6.806;2022-12-07T05:03:26;28.90;;;20.30;;
4353;SDS011;11018;51.258;6.806;2022-12-07T05:05:52;30.07;;;19.80;;
4353;SDS011;11018;51.258;6.806;2022-12-07T05:08:17;26.80;;;18.80;;
4353;SDS011;11018;51.258;6.806;2022-12-07T05:10:43;25.07;;;17.90;;
4353;SDS011;11018;51.258;6.806;2022-12-07T05:13:09;26.20;;;17.50;;
4353;SDS011;11018;51.258;6.806;2022-12-07T05:15:34;27.83;;;17.93;;
4353;SDS011;11018;51.258;6.806;2022-12-07T05:18:00;28.07;;;17.43;;
4353;SDS011;11018;51.258;6.806;2022-12-07T05:20:25;27.83;;;17.63;;
4353;SDS011;11018;51.258;6.806;2022-12-07T05:22:51;27.30;;;18.00;;
4353;SDS011;11018;51.258;6.806;2022-12-07T05:25:16;25.95;;;17.25;;
4353;SDS011;11018;51.258;6.806;2022-12-07T05:27:42;26.50;;;17.50;;
4353;SDS011;11018;51.258;6.806;2022-12-07T05:30:07;22.58;;;17.25;;
4353;SDS011;11018;51.258;6.806;2022-12-07T05:32:33;25.77;;;17.48;;
4353;SDS011;11018;51.258;6.806;2022-12-07T05:34:59;22.73;;;15.37;;
4353;SDS011;11018;51.258;6.806;2022-12-07T05:37:24;28.40;;;16.90;;
4353;SDS011;11018;51.258;6.806;2022-12-07T05:39:50;26.40;;;16.70;;
4353;SDS011;11018;51.258;6.806;2022-12-07T05:42:15;30.47;;;16.47;;
4353;SDS011;11018;51.258;6.806;2022-12-07T05:44:43;23.92;;;16.83;;
4353;SDS011;11018;51.258;6.806;2022-12-07T05:47:11;26.38;;;16.67;;
4353;SDS011;11018;51.258;6.806;2022-12-07T05:49:37;19.98;;;14.85;;
4353;SDS011;11018;51.258;6.806;2022-12-07T05:52:04;20.42;;;15.05;;
4353;SDS011;11018;51.258;6.806;2022-12-07T05:54:30;19.60;;;14.70;;
4353;SDS011;11018;51.258;6.806;2022-12-07T05:56:56;29.90;;;15.70;;
4353;SDS011;11018;51.258;6.806;2022-12-07T05:59:22;20.73;;;13.93;;
4353;SDS011;11018;51.258;6.806;2022-12-07T06:01:49;24.60;;;15.02;;
4353;SDS011;11018;51.258;6.806;2022-12-07T06:04:20;25.35;;;14.70;;
4353;SDS011;11018;51.258;6.806;2022-12-07T06:06:46;24.85;;;15.05;;
4353;SDS011;11018;51.258;6.806;2022-12-07T06:09:12;20.55;;;14.20;;
4353;SDS011;11018;51.258;6.806;2022-12-07T06:11:39;22.85;;;14.98;;
4353;SDS011;11018;51.258;6.806;2022-12-07T06:14:24;30.02;;;16.67;;
4353;SDS011;11018;51.258;6.806;2022-12-07T06:16:50;26.10;;;15.50;;
4353;SDS011;11018;51.258;6.806;2022-12-07T06:19:15;26.05;;;15.68;;
4353;SDS011;11018;51.258;6.806;2022-12-07T06:21:41;25.40;;;15.07;;
4353;SDS011;11018;51.258;6.806;2022-12-07T06:24:09;22.52;;;14.98;;
4353;SDS011;11018;51.258;6.806;2022-12-07T06:26:36;28.02;;;15.18;;
4353;SDS011;11018;51.258;6.806;2022-12-07T06:29:02;30.70;;;16.93;;
4353;SDS011;11018;51.258;6.806;2022-12-07T06:31:27;25.17;;;15.00;;
4353;SDS011;11018;51.258;6.806;2022-12-07T06:33:57;20.00;;;15.13;;
4353;SDS011;11018;51.258;6.806;2022-12-07T06:36:26;23.25;;;15.23;;
4353;SDS011;11018;51.258;6.806;2022-12-07T06:38:52;28.47;;;15.07;;
4353;SDS011;11018;51.258;6.806;2022-12-07T06:41:18;25.58;;;14.93;;
4353;SDS011;11018;51.258;6.806;2022-12-07T06:43:44;24.50;;;13.90;;
4353;SDS011;11018;51.258;6.806;2022-12-07T06:46:09;22.90;;;12.80;;
4353;SDS011;11018;51.258;6.806;2022-12-07T06:48:35;23.50;;;13.00;;
4353;SDS011;11018;51.258;6.806;2022-12-07T06:51:00;22.30;;;13.80;;
4353;SDS011;11018;51.258;6.806;2022-12-07T06:53:26;25.03;;;14.10;;
4353;SDS011;11018;51.258;6.806;2022-12-07T06:55:51;25.27;;;13.70;;
4353;SDS011;11018;51.258;6.806;2022-12-07T06:58:17;25.40;;;15.27;;
4353;SDS011;11018;51.258;6.806;2022-12-07T07:00:43;23.93;;;15.40;;
4353;SDS011;11018;51.258;6.806;2022-12-07T07:03:09;22.05;;;14.82;;
4353;SDS011;11018;51.258;6.806;2022-12-07T07:05:35;23.30;;;14.38;;
4353;SDS011;11018;51.258;6.806;2022-12-07T07:08:00;22.02;;;14.15;;
4353;SDS011;11018;51.258;6.806;2022-12-07T07:10:26;18.50;;;14.15;;
4353;SDS011;11018;51.258;6.806;2022-12-07T07:12:52;24.50;;;14.73;;
4353;SDS011;11018;51.258;6.806;2022-12-07T07:15:18;24.05;;;13.90;;
4353;SDS011;11018;51.258;6.806;2022-12-07T07:17:43;26.20;;;14.93;;
4353;SDS011;11018;51.258;6.806;2022-12-07T07:20:09;21.00;;;14.70;;
4353;SDS011;11018;51.258;6.806;2022-12-07T07:22:35;23.98;;;14.90;;
4353;SDS011;11018;51.258;6.806;2022-12-07T07:25:00;25.13;;;14.23;;
4353;SDS011;11018;51.258;6.806;2022-12-07T07:27:26;25.05;;;14.32;;
4353;SDS011;11018;51.258;6.806;2022-12-07T07:29:51;22.35;;;14.30;;
4353;SDS011;11018;51.258;6.806;2022-12-07T07:32:17;27.38;;;15.13;;
4353;SDS011;11018;51.258;6.806;2022-12-07T07:34:42;26.63;;;14.10;;
4353;SDS011;11018;51.258;6.806;2022-12-07T07:37:08;23.48;;;14.02;;
4353;SDS011;11018;51.258;6.806;2022-12-07T07:39:36;22.80;;;13.55;;
4353;SDS011;11018;51.258;6.806;2022-12-07T07:42:01;18.90;;;13.32;;
4353;SDS011;11018;51.258;6.806;2022-12-07T07:44:27;19.23;;;12.82;;
4353;SDS011;11018;51.258;6.806;2022-12-07T07:46:52;21.95;;;13.90;;
4353;SDS011;11018;51.258;6.806;2022-12-07T07:49:18;19.57;;;12.90;;
4353;SDS011;11018;51.258;6.806;2022-12-07T07:51:43;24.20;;;14.80;;
4353;SDS011;11018;51.258;6.806;2022-12-07T07:54:09;19.33;;;13.70;;
4353;SDS011;11018;51.258;6.806;2022-12-07T07:56:34;20.50;;;14.07;;
4353;SDS011;11018;51.258;6.806;2022-12-07T07:59:00;18.93;;;14.30;;
4353;SDS011;11018;51.258;6.806;2022-12-07T08:01:26;22.40;;;15.13;;
4353;SDS011;11018;51.258;6.806;2022-12-07T08:03:51;21.80;;;14.80;;
4353;SDS011;11018;51.258;6.806;2022-12-07T08:06:17;22.40;;;14.43;;
4353;SDS011;11018;51.258;6.806;2022-12-07T08:08:42;25.87;;;15.07;;
4353;SDS011;11018;51.258;6.806;2022-12-07T08:11:08;26.67;;;15.20;;
4353;SDS011;11018;51.258;6.806;2022-12-07T08:13:34;24.00;;;14.50;;
4353;SDS011;11018;51.258;6.806;2022-12-07T08:16:05;21.58;;;14.50;;
4353;SDS011;11018;51.258;6.806;2022-12-07T08:18:36;24.65;;;13.32;;
4353;SDS011;11018;51.258;6.806;2022-12-07T08:21:03;20.00;;;13.47;;
4353;SDS011;11018;51.258;6.806;2022-12-07T08:23:29;16.15;;;12.02;;
4353;SDS011;11018;51.258;6.806;2022-12-07T08:25:59;20.50;;;12.43;;
4353;SDS011;11018;51.258;6.806;2022-12-07T08:28:25;23.15;;;12.68;;
4353;SDS011;11018;51.258;6.806;2022-12-07T08:30:51;19.15;;;13.75;;
4353;SDS011;11018;51.258;6.806;2022-12-07T08:33:16;21.35;;;12.43;;
4353;SDS011;11018;51.258;6.806;2022-12-07T08:35:42;19.57;;;12.60;;
4353;SDS011;11018;51.258;6.806;2022-12-07T08:38:07;19.70;;;11.60;;
4353;SDS011;11018;51.258;6.806;2022-12-07T08:40:33;19.38;;;11.77;;
4353;SDS011;11018;51.258;6.806;2022-12-07T08:43:00;26.58;;;12.10;;
4353;SDS011;11018;51.258;6.806;2022-12-07T08:45:25;19.07;;;11.23;;
4353;SDS011;11018;51.258;6.806;2022-12-07T08:50:25;17.63;;;10.48;;
4353;SDS011;11018;51.258;6.806;2022-12-07T08:52:52;21.20;;;10.97;;
4353;SDS011;11018;51.258;6.806;2022-12-07T08:55:19;18.65;;;11.13;;
4353;SDS011;11018;51.258;6.806;2022-12-07T08:57:45;22.25;;;11.60;;
4353;SDS011;11018;51.258;6.806;2022-12-07T09:00:11;21.52;;;11.20;;
4353;SDS011;11018;51.258;6.806;2022-12-07T09:02:37;23.42;;;12.18;;
4353;SDS011;11018;51.258;6.806;2022-12-07T09:05:03;19.70;;;12.20;;
4353;SDS011;11018;51.258;6.806;2022-12-07T09:07:28;19.90;;;12.80;;
4353;SDS011;11018;51.258;6.806;2022-12-07T09:09:57;22.10;;;11.80;;
4353;SDS011;11018;51.258;6.806;2022-12-07T09:12:22;14.50;;;10.50;;
4353;SDS011;11018;51.258;6.806;2022-12-07T09:14:48;24.55;;;11.95;;
4353;SDS011;11018;51.258;6.806;2022-12-07T09:17:13;21.23;;;11.20;;
4353;SDS011;11018;51.258;6.806;2022-12-07T09:19:39;24.60;;;10.85;;
4353;SDS011;11018;51.258;6.806;2022-12-07T09:22:06;18.40;;;10.27;;
4353;SDS011;11018;51.258;6.806;2022-12-07T09:24:32;14.48;;;9.50;;
4353;SDS011;11018;51.258;6.806;2022-12-07T09:26:58;17.47;;;10.40;;
4353;SDS011;11018;51.258;6.806;2022-12-07T09:29:24;21.77;;;10.10;;
4353;SDS011;11018;51.258;6.806;2022-12-07T09:31:51;15.15;;;9.80;;
4353;SDS011;11018;51.258;6.806;2022-12-07T09:34:17;16.73;;;10.23;;
4353;SDS011;11018;51.258;6.806;2022-12-07T09:36:42;16.95;;;9.93;;
4353;SDS011;11018;51.258;6.806;2022-12-07T09:39:08;17.98;;;11.00;;
4353;SDS011;11018;51.258;6.806;2022-12-07T09:41:36;15.93;;;11.10;;
4353;SDS011;11018;51.258;6.806;2022-12-07T09:44:07;18.83;;;10.10;;
4353;SDS011;11018;51.258;6.806;2022-12-07T09:46:38;18.27;;;9.77;;
4353;SDS011;11018;51.258;6.806;2022-12-07T09:49:09;14.40;;;9.75;;
4353;SDS011;11018;51.258;6.806;2022-12-07T09:51:39;15.35;;;9.98;;
4353;SDS011;11018;51.258;6.806;2022-12-07T09:54:05;15.97;;;10.90;;
4353;SDS011;11018;51.258;6.806;2022-12-07T09:56:30;14.70;;;10.70;;
4353;SDS011;11018;51.258;6.806;2022-12-07T09:59:00;17.65;;;10.30;;
4353;SDS011;11018;51.258;6.806;2022-12-07T10:01:28;14.88;;;10.55;;
4353;SDS011;11018;51.258;6.806;2022-12-07T10:03:59;18.92;;;10.77;;
4353;SDS011;11018;51.258;6.806;2022-12-07T10:06:34;18.77;;;10.80;;
4353;SDS011;11018;51.258;6.806;2022-12-07T10:09:00;17.20;;;9.90;;
4353;SDS011;11018;51.258;6.806;2022-12-07T10:11:26;15.52;;;9.90;;
4353;SDS011;11018;51.258;6.806;2022-12-07T10:13:52;19.58;;;10.40;;
4353;SDS011;11018;51.258;6.806;2022-12-07T10:16:38;16.95;;;9.00;;
4353;SDS011;11018;51.258;6.806;2022-12-07T10:22:04;15.95;;;7.90;;
4353;SDS011;11018;51.258;6.806;2022-12-07T10:24:47;18.65;;;9.00;;
4353;SDS011;11018;51.258;6.806;2022-12-07T10:27:17;15.37;;;9.00;;
4353;SDS011;11018;51.258;6.806;2022-12-07T10:29:51;16.30;;;8.85;;
4353;SDS011;11018;51.258;6.806;2022-12-07T10:34:43;17.03;;;9.20;;
4353;SDS011;11018;51.258;6.806;2022-12-07T10:42:29;19.90;;;8.63;;
4353;SDS011;11018;51.258;6.806;2022-12-07T10:50:53;13.70;;;7.90;;
4353;SDS011;11018;51.258;6.806;2022-12-07T10:58:36;15.35;;;8.02;;
4353;SDS011;11018;51.258;6.806;2022-12-07T11:01:40;18.67;;;8.15;;
4353;SDS011;11018;51.258;6.806;2022-12-07T11:04:27;16.35;;;7.80;;
4353;SDS011;11018;51.258;6.806;2022-12-07T11:07:10;15.43;;;7.57;;
4353;SDS011;11018;51.258;6.806;2022-12-07T11:09:59;13.23;;;7.30;;
4353;SDS011;11018;51.258;6.806;2022-12-07T11:12:47;15.50;;;7.00;;
4353;SDS011;11018;51.258;6.806;2022-12-07T11:18:22;14.20;;;7.00;;
4353;SDS011;11018;51.258;6.806;2022-12-07T11:21:02;21.55;;;7.53;;
4353;SDS011;11018;51.258;6.806;2022-12-07T11:31:54;15.93;;;7.00;;
4353;SDS011;11018;51.258;6.806;2022-12-07T11:37:29;15.43;;;6.07;;
4353;SDS011;11018;51.258;6.806;2022-12-07T11:40:43;11.63;;;5.70;;
4353;SDS011;11018;51.258;6.806;2022-12-07T11:42:51;16.63;;;6.25;;
4353;SDS011;11018;51.258;6.806;2022-12-07T11:45:32;14.82;;;5.50;;
4353;SDS011;11018;51.258;6.806;2022-12-07T11:48:00;15.23;;;5.40;;
4353;SDS011;11018;51.258;6.806;2022-12-07T11:50:36;14.38;;;5.22;;
4353;SDS011;11018;51.258;6.806;2022-12-07T11:53:10;12.52;;;5.63;;
4353;SDS011;11018;51.258;6.806;2022-12-07T11:56:00;13.18;;;5.80;;
4353;SDS011;11018;51.258;6.806;2022-12-07T12:01:11;13.30;;;5.70;;
4353;SDS011;11018;51.258;6.806;2022-12-07T12:03:52;12.65;;;5.60;;
4353;SDS011;11018;51.258;6.806;2022-12-07T12:06:24;14.30;;;6.30;;
4353;SDS011;11018;51.258;6.806;2022-12-07T12:08:53;12.60;;;5.53;;
4353;SDS011;11018;51.258;6.806;2022-12-07T12:16:56;14.45;;;6.70;;
4353;SDS011;11018;51.258;6.806;2022-12-07T12:22:20;14.32;;;6.18;;
4353;SDS011;11018;51.258;6.806;2022-12-07T12:24:49;12.63;;;6.30;;
4353;SDS011;11018;51.258;6.806;2022-12-07T12:27:20;17.52;;;6.80;;
4353;SDS011;11018;51.258;6.806;2022-12-07T12:29:57;14.68;;;6.65;;
4353;SDS011;11018;51.258;6.806;2022-12-07T12:37:45;12.63;;;6.70;;
4353;SDS011;11018;51.258;6.806;2022-12-07T12:42:44;13.10;;;7.43;;
4353;SDS011;11018;51.258;6.806;2022-12-07T12:45:24;14.32;;;6.93;;
4353;SDS011;11018;51.258;6.806;2022-12-07T12:50:43;16.13;;;7.10;;
4353;SDS011;11018;51.258;6.806;2022-12-07T12:53:12;18.67;;;7.10;;
4353;SDS011;11018;51.258;6.806;2022-12-07T12:55:57;14.38;;;6.40;;
4353;SDS011;11018;51.258;6.806;2022-12-07T12:58:36;11.20;;;5.93;;
4353;SDS011;11018;51.258;6.806;2022-12-07T13:04:12;17.70;;;5.60;;
4353;SDS011;11018;51.258;6.806;2022-12-07T13:06:54;13.00;;;6.30;;
4353;SDS011;11018;51.258;6.806;2022-12-07T13:09:24;13.20;;;6.30;;
4353;SDS011;11018;51.258;6.806;2022-12-07T13:11:56;15.02;;;5.13;;
4353;SDS011;11018;51.258;6.806;2022-12-07T13:20:02;14.05;;;5.35;;
4353;SDS011;11018;51.258;6.806;2022-12-07T13:27:47;9.43;;;4.40;;
4353;SDS011;11018;51.258;6.806;2022-12-07T13:30:27;10.23;;;4.00;;
4353;SDS011;11018;51.258;6.806;2022-12-07T13:32:54;10.03;;;4.07;;
4353;SDS011;11018;51.258;6.806;2022-12-07T13:35:33;9.30;;;4.00;;
4353;SDS011;11018;51.258;6.806;2022-12-07T13:38:47;9.45;;;4.50;;
4353;SDS011;11018;51.258;6.806;2022-12-07T13:43:42;12.20;;;3.80;;
4353;SDS011;11018;51.258;6.806;2022-12-07T13:46:09;11.73;;;4.60;;
4353;SDS011;11018;51.258;6.806;2022-12-07T13:48:43;15.35;;;4.03;;
4353;SDS011;11018;51.258;6.806;2022-12-07T13:54:12;11.50;;;3.20;;
4353;SDS011;11018;51.258;6.806;2022-12-07T13:56:38;14.43;;;3.40;;
4353;SDS011;11018;51.258;6.806;2022-12-07T13:59:14;10.05;;;3.20;;
4353;SDS011;11018;51.258;6.806;2022-12-07T14:01:44;9.93;;;3.63;;
4353;SDS011;11018;51.258;6.806;2022-12-07T14:04:32;11.53;;;3.57;;
4353;SDS011;11018;51.258;6.806;2022-12-07T14:07:19;7.95;;;3.38;;
4353;SDS011;11018;51.258;6.806;2022-12-07T14:10:00;13.43;;;3.28;;
4353;SDS011;11018;51.258;6.806;2022-12-07T14:12:28;11.20;;;4.05;;
4353;SDS011;11018;51.258;6.806;2022-12-07T14:14:55;10.95;;;3.67;;
4353;SDS011;11018;51.258;6.806;2022-12-07T14:17:24;9.23;;;3.42;;
4353;SDS011;11018;51.258;6.806;2022-12-07T14:20:00;13.70;;;4.70;;
4353;SDS011;11018;51.258;6.806;2022-12-07T14:24:58;11.00;;;4.20;;
4353;SDS011;11018;51.258;6.806;2022-12-07T14:27:29;9.95;;;3.58;;
4353;SDS011;11018;51.258;6.806;2022-12-07T14:29:59;17.50;;;4.10;;
4353;SDS011;11018;51.258;6.806;2022-12-07T14:32:29;9.07;;;3.33;;
4353;SDS011;11018;51.258;6.806;2022-12-07T14:34:59;12.20;;;4.17;;
4353;SDS011;11018;51.258;6.806;2022-12-07T14:37:36;10.52;;;4.28;;
4353;SDS011;11018;51.258;6.806;2022-12-07T14:40:03;7.97;;;3.85;;
4353;SDS011;11018;51.258;6.806;2022-12-07T14:42:29;13.77;;;3.70;;
4353;SDS011;11018;51.258;6.806;2022-12-07T14:44:56;14.50;;;4.30;;
4353;SDS011;11018;51.258;6.806;2022-12-07T14:47:22;14.65;;;4.65;;
4353;SDS011;11018;51.258;6.806;2022-12-07T14:49:48;13.38;;;3.80;;
4353;SDS011;11018;51.258;6.806;2022-12-07T14:52:19;13.90;;;4.55;;
4353;SDS011;11018;51.258;6.806;2022-12-07T14:54:48;12.18;;;4.10;;
4353;SDS011;11018;51.258;6.806;2022-12-07T14:57:13;18.10;;;5.40;;
4353;SDS011;11018;51.258;6.806;2022-12-07T14:59:39;15.90;;;4.80;;
4353;SDS011;11018;51.258;6.806;2022-12-07T15:02:05;14.33;;;5.10;;
4353;SDS011;11018;51.258;6.806;2022-12-07T15:04:31;15.32;;;4.50;;
4353;SDS011;11018;51.258;6.806;2022-12-07T15:06:57;11.03;;;4.97;;
4353;SDS011;11018;51.258;6.806;2022-12-07T15:09:25;12.57;;;5.78;;
4353;SDS011;11018;51.258;6.806;2022-12-07T15:11:50;16.33;;;5.60;;
4353;SDS011;11018;51.258;6.806;2022-12-07T15:14:16;16.45;;;5.88;;
4353;SDS011;11018;51.258;6.806;2022-12-07T15:16:42;16.00;;;5.75;;
4353;SDS011;11018;51.258;6.806;2022-12-07T15:19:10;15.77;;;6.10;;
4353;SDS011;11018;51.258;6.806;2022-12-07T15:21:39;12.88;;;5.70;;
4353;SDS011;11018;51.258;6.806;2022-12-07T15:24:05;12.23;;;5.25;;
4353;SDS011;11018;51.258;6.806;2022-12-07T15:26:31;14.35;;;5.85;;
4353;SDS011;11018;51.258;6.806;2022-12-07T15:28:56;11.63;;;5.05;;
4353;SDS011;11018;51.258;6.806;2022-12-07T15:31:22;16.27;;;5.40;;
4353;SDS011;11018;51.258;6.806;2022-12-07T15:33:47;10.98;;;4.95;;
4353;SDS011;11018;51.258;6.806;2022-12-07T15:36:23;18.73;;;5.95;;
4353;SDS011;11018;51.258;6.806;2022-12-07T15:38:51;16.75;;;5.60;;
4353;SDS011;11018;51.258;6.806;2022-12-07T15:41:17;14.40;;;4.90;;
4353;SDS011;11018;51.258;6.806;2022-12-07T15:43:43;13.27;;;5.03;;
4353;SDS011;11018;51.258;6.806;2022-12-07T15:46:31;16.77;;;5.72;;
4353;SDS011;11018;51.258;6.806;2022-12-07T15:49:01;14.55;;;5.70;;
4353;SDS011;11018;51.258;6.806;2022-12-07T15:51:27;20.17;;;5.60;;
4353;SDS011;11018;51.258;6.806;2022-12-07T15:53:53;15.23;;;5.50;;
4353;SDS011;11018;51.258;6.806;2022-12-07T15:56:19;18.10;;;5.80;;
4353;SDS011;11018;51.258;6.806;2022-12-07T15:58:44;17.27;;;5.67;;
4353;SDS011;11018;51.258;6.806;2022-12-07T16:01:14;17.17;;;5.72;;
4353;SDS011;11018;51.258;6.806;2022-12-07T16:03:42;14.23;;;5.47;;
4353;SDS011;11018;51.258;6.806;2022-12-07T16:06:09;21.93;;;5.90;;
4353;SDS011;11018;51.258;6.806;2022-12-07T16:08:35;16.33;;;4.22;;
4353;SDS011;11018;51.258;6.806;2022-12-07T16:11:04;9.68;;;4.63;;
4353;SDS011;11018;51.258;6.806;2022-12-07T16:13:33;13.77;;;4.88;;
4353;SDS011;11018;51.258;6.806;2022-12-07T16:16:01;11.93;;;5.00;;
4353;SDS011;11018;51.258;6.806;2022-12-07T16:18:31;10.30;;;4.95;;
4353;SDS011;11018;51.258;6.806;2022-12-07T16:20:56;19.07;;;4.97;;
4353;SDS011;11018;51.258;6.806;2022-12-07T16:23:22;16.70;;;5.63;;
4353;SDS011;11018;51.258;6.806;2022-12-07T16:25:47;12.87;;;5.03;;
4353;SDS011;11018;51.258;6.806;2022-12-07T16:28:13;13.90;;;5.80;;
4353;SDS011;11018;51.258;6.806;2022-12-07T16:30:39;13.10;;;5.70;;
4353;SDS011;11018;51.258;6.806;2022-12-07T16:33:04;15.67;;;5.90;;
4353;SDS011;11018;51.258;6.806;2022-12-07T16:35:30;15.50;;;6.50;;
4353;SDS011;11018;51.258;6.806;2022-12-07T16:37:55;16.37;;;6.30;;
4353;SDS011;11018;51.258;6.806;2022-12-07T16:40:21;15.53;;;6.53;;
4353;SDS011;11018;51.258;6.806;2022-12-07T16:42:46;12.97;;;6.40;;
4353;SDS011;11018;51.258;6.806;2022-12-07T16:45:12;16.30;;;8.50;;
4353;SDS011;11018;51.258;6.806;2022-12-07T16:47:38;16.45;;;7.35;;
4353;SDS011;11018;51.258;6.806;2022-12-07T16:50:05;16.30;;;7.35;;
4353;SDS011;11018;51.258;6.806;2022-12-07T16:52:32;13.88;;;7.50;;
4353;SDS011;11018;51.258;6.806;2022-12-07T16:54:58;16.00;;;7.25;;
4353;SDS011;11018;51.258;6.806;2022-12-07T16:57:24;14.30;;;7.37;;
4353;SDS011;11018;51.258;6.806;2022-12-07T17:02:16;19.50;;;8.93;;